Pauline, Nebraska
Current Conditions -  °F | °C
As of 4:36 AM on Monday 22 Dec 2014 (Local Time) from KHSI Reporting Station
Haze Haze  
Wind Chill: 37°   Ceiling: 1500
Heat Index: 41°   Visibility: 5mi
Dew Point: 38°   Wind: 6mph
Humidity: 89%   Direction: 240°WSW
Pressure: 29.5"   Gusts: NA
Location:  40.4809°N, 98.2217°W
Report Text: KHSI 221036Z AUTO 24005KT 5SM BR FEW007 OVC015 05/03 A2950 RMK AO2 T00500033
Loading
Personal Weather Stations






























Interactive Weather Map New forecast layout! Learn more

10-Day Weather Forecast

Advertisements
Track Severe Weather on mobile